Time;durP1;ratioP1;P1;durP2;ratioP2;P2;SDS_P1;SDS_P2;PMS_P1;PMS_P2;Temp;Humidity;BMP_temperature;BMP_pressure;BME280_temperature;BME280_humidity;BME280_pressure;Samples;Min_cycle;Max_cycle;Signal;HPM_P1;HPM_P2
2022/03/05 00:00:38;;;;;;;3.58;3.20;;;;;;;4.42;49.24;99414.90;1750438;80;21440;-65
2022/03/05 00:03:05;;;;;;;3.80;2.95;;;;;;;4.37;49.13;99411.11;1765880;80;21521;-65
2022/03/05 00:05:33;;;;;;;3.90;2.70;;;;;;;4.37;49.10;99414.13;1758272;80;22511;-65
2022/03/05 00:08:00;;;;;;;3.58;3.27;;;;;;;4.34;49.27;99412.91;1763108;80;21354;-64
2022/03/05 00:10:27;;;;;;;2.92;2.62;;;;;;;4.31;49.22;99416.88;1754954;80;29426;-64
2022/03/05 00:12:54;;;;;;;4.07;3.53;;;;;;;4.25;48.89;99417.41;1751053;80;21538;-64
2022/03/05 00:15:23;;;;;;;3.02;2.58;;;;;;;4.28;49.08;99418.66;1756766;80;20957;-64
2022/03/05 00:17:52;;;;;;;5.72;3.12;;;;;;;4.27;49.17;99409.11;1769746;80;22524;-64
2022/03/05 00:20:21;;;;;;;3.55;3.10;;;;;;;4.24;48.91;99417.01;1754160;80;21383;-64
2022/03/05 00:22:52;;;;;;;3.25;2.95;;;;;;;4.26;49.16;99417.83;1755279;80;21515;-63
2022/03/05 00:25:18;;;;;;;3.87;3.15;;;;;;;4.24;49.09;99413.55;1758780;80;21029;-63
2022/03/05 00:27:45;;;;;;;3.22;2.92;;;;;;;4.27;49.21;99416.92;1769868;80;21490;-63
2022/03/05 00:30:12;;;;;;;3.07;2.80;;;;;;;4.28;49.45;99417.35;1757957;80;22586;-63
2022/03/05 00:32:39;;;;;;;5.43;3.53;;;;;;;4.30;49.36;99416.02;1771221;80;21649;-63
2022/03/05 00:35:07;;;;;;;3.90;2.90;;;;;;;4.31;49.11;99412.97;1760560;80;20969;-63
2022/03/05 00:37:34;;;;;;;3.12;2.83;;;;;;;4.26;48.68;99406.12;1767788;80;21031;-63
2022/03/05 00:40:00;;;;;;;4.07;2.73;;;;;;;4.24;48.97;99408.35;1758128;80;20977;-63
2022/03/05 00:42:27;;;;;;;4.08;3.08;;;;;;;4.26;49.16;99410.02;1768905;80;22517;-63
2022/03/05 00:44:54;;;;;;;3.60;2.98;;;;;;;4.31;49.24;99411.21;1751492;80;21495;-63
2022/03/05 00:47:21;;;;;;;3.77;2.83;;;;;;;4.33;49.43;99407.28;1760146;80;21482;-63
2022/03/05 00:49:48;;;;;;;3.07;2.77;;;;;;;4.32;48.93;99416.00;1747451;80;21358;-63
2022/03/05 00:52:15;;;;;;;3.90;2.90;;;;;;;4.31;49.24;99413.81;1771626;80;21546;-63
2022/03/05 00:54:42;;;;;;;3.87;3.00;;;;;;;4.42;49.18;99418.80;1754204;80;21782;-64
2022/03/05 00:57:08;;;;;;;4.03;3.52;;;;;;;4.42;48.90;99413.59;1758797;80;21466;-64
2022/03/05 00:59:35;;;;;;;3.63;3.33;;;;;;;4.41;48.79;99412.75;1745416;80;21116;-63
2022/03/05 01:02:03;;;;;;;3.50;3.17;;;;;;;4.38;49.00;99418.46;1771523;80;21474;-63
2022/03/05 01:04:29;;;;;;;3.42;3.12;;;;;;;4.39;49.26;99420.16;1766522;80;21549;-64
2022/03/05 01:06:57;;;;;;;3.33;3.02;;;;;;;4.42;48.96;99423.56;1751832;80;22627;-64
2022/03/05 01:09:24;;;;;;;3.20;2.90;;;;;;;4.37;48.83;99421.52;1744916;80;20937;-64
2022/03/05 01:11:51;;;;;;;3.47;3.17;;;;;;;4.38;49.06;99419.31;1770499;80;21439;-64
2022/03/05 01:14:18;;;;;;;3.00;2.70;;;;;;;4.38;48.90;99416.70;1755833;80;21398;-63
2022/03/05 01:16:44;;;;;;;2.95;2.72;;;;;;;4.45;48.88;99424.80;1760384;80;21505;-62
2022/03/05 01:19:11;;;;;;;3.27;2.98;;;;;;;4.48;48.86;99426.47;1743767;80;22631;-65
2022/03/05 01:21:38;;;;;;;3.10;2.80;;;;;;;4.55;48.81;99431.13;1761923;80;21423;-65
2022/03/05 01:24:06;;;;;;;3.45;2.45;;;;;;;4.49;48.08;99424.30;1751477;80;21740;-65
2022/03/05 01:26:33;;;;;;;2.83;2.62;;;;;;;4.43;48.10;99417.93;1753409;80;21629;-64
2022/03/05 01:28:59;;;;;;;2.80;2.50;;;;;;;4.44;48.18;99418.33;1736422;80;21580;-64
2022/03/05 01:31:26;;;;;;;3.40;2.72;;;;;;;4.42;47.96;99424.02;1757461;80;22510;-63
2022/03/05 01:33:53;;;;;;;2.70;2.40;;;;;;;4.41;48.01;99422.31;1752919;80;21488;-63
2022/03/05 01:36:20;;;;;;;2.80;2.47;;;;;;;4.43;48.11;99425.28;1750138;80;21428;-62
2022/03/05 01:38:46;;;;;;;2.85;2.65;;;;;;;4.47;47.71;99426.08;1740255;80;21550;-64
2022/03/05 01:41:13;;;;;;;2.90;2.70;;;;;;;4.41;47.73;99419.71;1757805;80;21495;-63
2022/03/05 01:43:40;;;;;;;2.90;2.70;;;;;;;4.40;47.78;99421.44;1743072;80;21572;-62
2022/03/05 01:46:07;;;;;;;3.53;2.80;;;;;;;4.39;47.97;99422.77;1754551;80;21000;-63
2022/03/05 01:48:34;;;;;;;2.83;2.45;;;;;;;4.42;48.19;99420.95;1744561;80;20950;-63
2022/03/05 01:51:01;;;;;;;3.77;2.67;;;;;;;4.44;48.10;99418.33;1752929;80;21049;-63
2022/03/05 01:53:28;;;;;;;3.10;2.67;;;;;;;4.49;48.34;99419.94;1745083;80;21530;-63
2022/03/05 01:55:55;;;;;;;2.40;2.20;;;;;;;4.54;48.24;99423.77;1744055;80;22490;-62
2022/03/05 01:58:22;;;;;;;3.00;2.60;;;;;;;4.51;48.29;99417.31;1743067;80;21422;-63
2022/03/05 02:00:48;;;;;;;3.70;2.77;;;;;;;4.52;48.30;99420.34;1738711;80;21428;-64
2022/03/05 02:03:16;;;;;;;3.62;2.80;;;;;;;4.54;48.25;99417.67;1744010;80;21518;-63
2022/03/05 02:05:42;;;;;;;2.92;2.12;;;;;;;4.59;48.22;99418.44;1757637;80;21431;-63
2022/03/05 02:08:09;;;;;;;3.83;2.35;;;;;;;4.55;47.88;99414.20;1744914;80;22617;-63
2022/03/05 02:10:36;;;;;;;4.37;2.90;;;;;;;4.59;48.21;99420.59;1746234;80;21518;-63
2022/03/05 02:13:04;;;;;;;3.20;2.90;;;;;;;4.60;48.30;99422.77;1740960;80;21656;-63
2022/03/05 02:15:33;;;;;;;2.65;2.45;;;;;;;4.68;48.36;99424.30;1744456;80;20973;-63
2022/03/05 02:17:59;;;;;;;2.50;2.30;;;;;;;4.71;48.50;99421.20;1746761;80;21434;-63
2022/03/05 02:20:29;;;;;;;3.50;3.03;;;;;;;4.73;48.78;99418.12;1742156;80;21956;-63
2022/03/05 02:22:56;;;;;;;3.45;2.95;;;;;;;4.73;48.78;99418.12;1744087;80;22005;-64
2022/03/05 02:25:23;;;;;;;3.27;2.80;;;;;;;4.72;48.48;99418.58;1743776;80;21391;-63
2022/03/05 02:27:50;;;;;;;2.98;2.77;;;;;;;4.67;48.11;99423.91;1748495;80;21359;-63
2022/03/05 02:30:16;;;;;;;2.98;2.55;;;;;;;4.59;48.61;99433.61;1750605;80;21577;-63
2022/03/05 02:32:43;;;;;;;4.60;2.55;;;;;;;4.61;48.71;99428.38;1742268;80;22508;-63
2022/03/05 02:35:10;;;;;;;3.20;2.43;;;;;;;4.60;48.74;99437.09;1714046;82;21462;-62
2022/03/05 02:37:37;;;;;;;4.15;2.95;;;;;;;4.64;48.55;99434.83;1737068;80;21843;-63
2022/03/05 02:40:05;;;;;;;3.02;2.70;;;;;;;4.63;48.27;99431.80;1750844;80;21483;-63
2022/03/05 02:42:32;;;;;;;2.52;2.33;;;;;;;4.65;48.44;99433.50;1739659;80;21510;-63
2022/03/05 02:45:00;;;;;;;3.60;2.62;;;;;;;4.66;48.62;99440.86;1743485;80;22546;-63
2022/03/05 02:47:27;;;;;;;2.85;2.65;;;;;;;4.64;48.66;99437.44;1754058;80;21494;-63
2022/03/05 02:49:54;;;;;;;4.03;3.35;;;;;;;4.59;48.83;99436.22;1742421;80;21506;-63
2022/03/05 02:52:20;;;;;;;2.80;2.60;;;;;;;4.60;48.86;99442.30;1739151;80;20887;-64
2022/03/05 02:54:47;;;;;;;3.12;2.87;;;;;;;4.57;48.92;99440.60;1754098;80;21391;-63
2022/03/05 02:57:14;;;;;;;2.80;2.60;;;;;;;4.56;48.95;99441.93;1751514;80;22667;-63
2022/03/05 02:59:41;;;;;;;3.10;2.80;;;;;;;4.52;48.96;99440.28;1739397;80;21487;-63
2022/03/05 03:02:07;;;;;;;2.10;1.90;;;;;;;4.56;49.36;99444.53;1743797;80;21487;-65
2022/03/05 03:04:34;;;;;;;2.62;2.40;;;;;;;4.56;49.36;99444.53;1750752;80;21610;-65
2022/03/05 03:07:02;;;;;;;3.02;2.70;;;;;;;4.54;49.13;99450.22;1763226;80;21376;-64
2022/03/05 03:09:30;;;;;;;3.22;2.17;;;;;;;4.53;49.09;99456.34;1746368;80;22543;-64
2022/03/05 03:11:56;;;;;;;3.35;2.87;;;;;;;4.59;49.28;99451.84;1746671;80;21410;-64
2022/03/05 03:14:23;;;;;;;2.98;2.70;;;;;;;4.61;48.79;99454.41;1745621;80;21363;-63
2022/03/05 03:16:51;;;;;;;2.62;2.42;;;;;;;4.56;48.85;99455.83;1752648;80;21432;-64
2022/03/05 03:19:18;;;;;;;3.25;2.08;;;;;;;4.53;48.66;99457.19;1763607;80;21471;-64
2022/03/05 03:21:46;;;;;;;2.40;2.20;;;;;;;4.51;48.70;99457.66;1759269;80;22744;-64
2022/03/05 03:24:12;;;;;;;3.25;2.50;;;;;;;4.53;48.71;99465.45;1741028;80;26185;-64
2022/03/05 03:26:39;;;;;;;2.75;2.55;;;;;;;4.58;48.99;99467.52;1760971;80;21458;-64
2022/03/05 03:29:06;;;;;;;3.47;2.92;;;;;;;4.59;48.87;99462.70;1752248;80;21572;-65
2022/03/05 03:31:33;;;;;;;2.37;2.15;;;;;;;4.57;48.69;99464.03;1751644;80;21506;-64
2022/03/05 03:34:01;;;;;;;2.50;2.30;;;;;;;4.55;48.76;99461.91;1761615;80;21621;-64
2022/03/05 03:36:28;;;;;;;2.97;2.10;;;;;;;4.55;48.67;99464.52;1751924;80;21546;-63
2022/03/05 03:38:55;;;;;;;2.45;2.02;;;;;;;4.51;48.40;99467.23;1749439;80;21437;-64
2022/03/05 03:41:22;;;;;;;2.33;1.92;;;;;;;4.53;48.70;99466.30;1751541;80;20898;-64
2022/03/05 03:43:48;;;;;;;1.85;1.75;;;;;;;4.52;48.58;99465.91;1752147;80;21526;-63
2022/03/05 03:46:15;;;;;;;1.67;1.57;;;;;;;4.53;48.74;99473.27;1758942;80;22504;-64
2022/03/05 03:48:42;;;;;;;2.00;1.80;;;;;;;4.52;48.85;99471.11;1751786;80;21395;-63
2022/03/05 03:51:08;;;;;;;2.33;2.08;;;;;;;4.53;48.82;99470.20;1755632;80;21506;-63
2022/03/05 03:53:35;;;;;;;2.47;2.27;;;;;;;4.54;48.89;99474.95;1758766;80;21483;-63
2022/03/05 03:56:02;;;;;;;2.42;2.22;;;;;;;4.50;48.42;99485.88;1756429;80;21415;-64
2022/03/05 03:58:30;;;;;;;;;;;;;;;4.48;48.62;99479.43;1754828;80;22483;-63
2022/03/05 04:00:56;;;;;;;2.37;2.12;;;;;;;4.44;48.68;99491.22;1751226;80;20423;-63
2022/03/05 04:03:23;;;;;;;2.27;2.08;;;;;;;4.47;48.67;99477.70;1760910;80;21458;-63
2022/03/05 04:05:50;;;;;;;2.33;2.05;;;;;;;4.47;48.77;99486.81;1754525;80;21432;-64
2022/03/05 04:11:02;;;;;;;2.75;2.55;;;;;;;4.55;48.78;99484.05;1760540;80;22536;-63
2022/03/05 04:13:30;;;;;;;2.50;2.30;;;;;;;4.60;48.79;99479.61;1762756;80;20979;-63
2022/03/05 04:15:57;;;;;;;2.07;1.87;;;;;;;4.61;48.67;99484.36;1764196;80;21422;-64
2022/03/05 04:18:23;;;;;;;2.37;2.17;;;;;;;4.54;48.52;99490.58;1762785;80;21407;-64
2022/03/05 04:20:50;;;;;;;2.30;2.10;;;;;;;4.56;48.62;99491.41;1748805;80;21410;-63
2022/03/05 04:23:18;;;;;;;2.55;2.10;;;;;;;4.49;48.77;99491.99;1760740;80;22484;-63
2022/03/05 04:25:44;;;;;;;2.67;2.47;;;;;;;4.48;48.65;99493.75;1748354;80;21431;-63
2022/03/05 04:28:13;;;;;;;3.12;2.80;;;;;;;4.53;48.92;99496.70;1759069;80;21828;-63
2022/03/05 04:30:40;;;;;;;2.55;2.33;;;;;;;4.57;48.71;99497.89;1742027;80;20915;-64
2022/03/05 04:33:07;;;;;;;2.25;2.05;;;;;;;4.59;48.71;99493.50;1746251;80;21485;-62
2022/03/05 04:35:33;;;;;;;2.47;2.27;;;;;;;4.62;48.67;99498.66;1747514;80;22638;-63
2022/03/05 04:38:00;;;;;;;2.27;2.08;;;;;;;4.55;48.61;99500.13;1756407;80;20870;-63
2022/03/05 04:40:27;;;;;;;2.08;1.90;;;;;;;4.51;48.63;99513.64;1740420;80;21420;-63
2022/03/05 04:42:53;;;;;;;1.80;1.70;;;;;;;4.54;48.80;99504.48;1747611;80;21386;-63
2022/03/05 04:45:20;;;;;;;2.95;2.52;;;;;;;4.54;48.70;99516.20;1743892;80;21461;-63
2022/03/05 04:47:47;;;;;;;2.35;1.70;;;;;;;4.59;48.53;99514.79;1759983;80;22510;-63
2022/03/05 04:50:14;;;;;;;1.77;1.57;;;;;;;4.60;48.68;99514.77;1741039;80;20929;-62
2022/03/05 04:52:40;;;;;;;2.42;1.72;;;;;;;4.63;48.71;99516.02;1752199;80;21545;-64
2022/03/05 04:55:08;;;;;;;1.60;1.50;;;;;;;4.64;48.66;99528.59;1742844;80;21569;-62
2022/03/05 04:57:35;;;;;;;2.10;1.77;;;;;;;4.65;48.10;99527.25;1743901;80;21502;-59
2022/03/05 05:00:07;;;;;;;1.65;1.55;;;;;;;4.64;48.30;99528.13;1745511;80;22499;-59
2022/03/05 05:02:34;;;;;;;1.35;1.25;;;;;;;4.75;48.16;99525.77;1758915;80;20988;-63
2022/03/05 05:05:00;;;;;;;1.50;1.40;;;;;;;4.74;48.48;99525.34;1751259;80;20870;-64
2022/03/05 05:07:27;;;;;;;1.70;1.60;;;;;;;4.75;48.26;99544.00;1759833;80;21431;-64
2022/03/05 05:09:55;;;;;;;1.70;1.60;;;;;;;4.78;48.26;99549.13;1754054;80;21462;-64
2022/03/05 05:12:22;;;;;;;1.72;1.50;;;;;;;4.78;48.16;99542.61;1758674;80;22475;-65
2022/03/05 05:14:49;;;;;;;1.55;1.40;;;;;;;4.78;48.14;99551.73;1748127;80;21418;-65
2022/03/05 05:17:16;;;;;;;2.42;1.32;;;;;;;4.79;48.21;99556.06;1746617;80;20879;-64
2022/03/05 05:19:43;;;;;;;1.73;1.63;;;;;;;4.84;48.05;99562.02;1755041;80;21503;-65
2022/03/05 05:22:11;;;;;;;1.57;1.30;;;;;;;4.80;47.81;99564.28;1760188;80;21535;-63
2022/03/05 05:24:38;;;;;;;1.98;1.77;;;;;;;4.85;48.14;99565.05;1763508;79;22561;-66
2022/03/05 05:27:06;;;;;;;1.37;1.25;;;;;;;4.87;47.92;99567.17;1766557;79;21784;-65
2022/03/05 05:29:33;;;;;;;1.67;1.45;;;;;;;4.87;47.83;99564.57;1764688;80;21441;-66
2022/03/05 05:32:00;;;;;;;1.77;1.67;;;;;;;4.86;48.07;99570.23;1760725;80;20924;-65
2022/03/05 05:34:27;;;;;;;1.60;1.32;;;;;;;4.94;47.74;99570.52;1765805;80;21358;-66
2022/03/05 05:36:54;;;;;;;1.12;1.02;;;;;;;4.91;47.68;99566.22;1755196;80;22582;-64
2022/03/05 05:39:20;;;;;;;1.30;1.20;;;;;;;4.88;47.38;99571.51;1762966;80;21327;-64
2022/03/05 05:41:47;;;;;;;1.55;1.45;;;;;;;4.81;47.47;99572.06;1765196;80;21502;-65
2022/03/05 05:44:14;;;;;;;0.90;0.90;;;;;;;4.87;47.60;99578.90;1745409;80;21429;-65
2022/03/05 05:46:41;;;;;;;1.80;1.60;;;;;;;4.90;47.75;99582.75;1761149;80;21374;-65
2022/03/05 05:49:07;;;;;;;1.72;1.52;;;;;;;4.97;47.55;99584.34;1752052;80;21560;-63
2022/03/05 05:51:35;;;;;;;1.55;1.45;;;;;;;4.98;47.60;99583.89;1747529;80;20998;-64
2022/03/05 05:54:03;;;;;;;1.52;1.40;;;;;;;5.02;47.56;99589.00;1759622;80;21404;-64
2022/03/05 05:56:31;;;;;;;1.45;1.32;;;;;;;4.99;47.21;99586.47;1764415;80;21775;-65
2022/03/05 05:58:57;;;;;;;1.30;1.20;;;;;;;5.02;47.57;99589.45;1757787;80;21530;-64
2022/03/05 06:01:24;;;;;;;1.77;1.30;;;;;;;4.99;47.03;99588.20;1747219;80;22498;-64
2022/03/05 06:03:52;;;;;;;1.30;1.20;;;;;;;4.97;46.98;99592.17;1760903;80;21375;-64
2022/03/05 06:06:20;;;;;;;1.40;1.30;;;;;;;4.99;46.85;99592.98;1761893;79;21498;-64
2022/03/05 06:08:47;;;;;;;1.37;1.27;;;;;;;4.96;46.70;99594.34;1761376;80;21430;-65
2022/03/05 06:11:14;;;;;;;2.30;1.30;;;;;;;4.99;47.00;99596.02;1757575;80;21008;-65
2022/03/05 06:13:41;;;;;;;1.50;1.40;;;;;;;4.99;47.00;99596.02;1766434;80;22531;-64
2022/03/05 06:16:09;;;;;;;1.32;1.22;;;;;;;5.06;46.65;99602.82;1751166;80;21757;-64
2022/03/05 06:18:36;;;;;;;1.45;1.35;;;;;;;5.02;46.45;99605.94;1758086;80;21442;-65
2022/03/05 06:21:03;;;;;;;1.10;1.10;;;;;;;5.05;46.86;99600.67;1765459;80;21423;-65
2022/03/05 06:23:32;;;;;;;1.40;1.30;;;;;;;5.03;46.46;99610.27;1750180;80;21497;-64
2022/03/05 06:25:58;;;;;;;2.58;1.17;;;;;;;4.93;46.23;99611.33;1757161;80;22612;-64
2022/03/05 06:28:25;;;;;;;0.95;0.95;;;;;;;4.93;46.67;99607.88;1757050;80;21385;-64
2022/03/05 06:30:52;;;;;;;1.45;1.35;;;;;;;4.92;46.45;99616.60;1757643;80;21418;-64
2022/03/05 06:33:19;;;;;;;1.70;1.60;;;;;;;4.94;46.88;99622.64;1765910;80;21507;-62
2022/03/05 06:35:46;;;;;;;1.52;1.40;;;;;;;4.97;47.07;99626.05;1763820;80;20972;-62
2022/03/05 06:38:13;;;;;;;1.52;1.27;;;;;;;5.02;47.04;99628.09;1755209;80;22583;-64
2022/03/05 06:40:39;;;;;;;1.60;1.50;;;;;;;5.07;47.21;99627.55;1762342;80;21426;-66
2022/03/05 06:43:06;;;;;;;1.87;1.12;;;;;;;5.15;47.25;99632.61;1760779;80;21495;-63
2022/03/05 06:45:33;;;;;;;1.50;1.40;;;;;;;5.21;46.99;99639.44;1748555;80;21388;-65
2022/03/05 06:48:00;;;;;;;1.45;1.35;;;;;;;5.22;46.76;99638.11;1753032;80;21515;-71
2022/03/05 06:50:27;;;;;;;1.50;1.40;;;;;;;5.20;46.55;99641.20;1757959;79;22926;-64
2022/03/05 06:52:53;;;;;;;1.27;1.17;;;;;;;5.12;46.30;99635.72;1752845;79;21493;-64
2022/03/05 06:55:20;;;;;;;2.52;1.45;;;;;;;5.02;46.60;99638.51;1690415;83;21465;-65
2022/03/05 06:57:47;;;;;;;1.70;1.60;;;;;;;4.99;46.52;99641.62;1697536;82;21399;-64
2022/03/05 07:00:15;;;;;;;1.45;1.30;;;;;;;5.02;46.44;99637.66;1694111;83;20936;-64
2022/03/05 07:02:42;;;;;;;0.93;0.80;;;;;;;4.98;46.30;99644.67;1695968;82;22517;-64
2022/03/05 07:05:10;;;;;;;1.42;1.10;;;;;;;4.96;46.01;99642.55;1755884;79;26253;-65
2022/03/05 07:07:37;;;;;;;1.60;1.32;;;;;;;5.03;46.05;99641.55;1758248;80;21478;-64
2022/03/05 07:10:04;;;;;;;1.50;1.10;;;;;;;5.06;45.61;99641.46;1753862;80;21449;-64
2022/03/05 07:12:32;;;;;;;1.52;1.40;;;;;;;5.10;45.36;99647.92;1755121;80;21562;-64
2022/03/05 07:14:59;;;;;;;1.23;1.03;;;;;;;5.14;45.15;99648.27;1759273;80;22416;-64
2022/03/05 07:17:25;;;;;;;2.10;1.10;;;;;;;5.21;45.62;99647.27;1761523;80;21787;-66
2022/03/05 07:19:55;;;;;;;1.32;1.22;;;;;;;5.32;45.48;99656.17;1755970;80;21548;-64
2022/03/05 07:22:22;;;;;;;1.32;1.07;;;;;;;5.35;45.44;99658.27;1757737;80;21511;-63
2022/03/05 07:24:50;;;;;;;1.10;0.95;;;;;;;5.52;45.07;99654.00;1739392;80;27740;-65
2022/03/05 07:27:17;;;;;;;1.65;1.10;;;;;;;5.59;45.11;99658.61;1743964;80;22537;-64
2022/03/05 07:29:46;;;;;;;1.70;1.10;;;;;;;5.62;44.59;99657.25;1736031;80;21559;-64
2022/03/05 07:32:13;;;;;;;1.40;1.30;;;;;;;5.59;44.42;99659.46;1733522;80;21130;-64
2022/03/05 07:34:40;;;;;;;1.53;1.40;;;;;;;5.50;44.23;99657.09;1731189;80;21474;-63
2022/03/05 07:37:07;;;;;;;1.52;1.42;;;;;;;5.48;44.75;99661.91;1739850;80;21575;-63
2022/03/05 07:39:34;;;;;;;2.52;1.10;;;;;;;5.45;45.11;99660.23;1735869;80;22465;-63
2022/03/05 07:42:02;;;;;;;1.25;1.15;;;;;;;5.39;44.82;99666.44;1734232;80;20964;-64
2022/03/05 07:44:28;;;;;;;1.47;1.00;;;;;;;5.40;44.70;99673.80;1742489;80;21578;-64
2022/03/05 07:46:55;;;;;;;2.90;1.52;;;;;;;5.34;44.63;99668.27;1718323;82;21533;-65
2022/03/05 07:49:22;;;;;;;1.07;1.07;;;;;;;5.33;44.23;99666.99;1715373;82;21492;-64
2022/03/05 07:51:49;;;;;;;1.82;1.32;;;;;;;5.35;44.55;99668.70;1733553;80;22530;-64
2022/03/05 07:54:16;;;;;;;1.60;1.30;;;;;;;5.41;44.54;99665.95;1744111;80;21028;-64
2022/03/05 07:56:43;;;;;;;1.57;1.00;;;;;;;5.45;44.47;99668.05;1734859;80;21491;-63
2022/03/05 07:59:10;;;;;;;1.47;1.37;;;;;;;5.51;44.34;99667.06;1739926;80;21454;-64
2022/03/05 08:01:37;;;;;;;2.42;1.15;;;;;;;5.52;44.51;99673.98;1737738;80;21557;-64
2022/03/05 08:04:04;;;;;;;1.12;1.02;;;;;;;5.52;44.11;99668.77;1739800;79;22495;-64
2022/03/05 08:06:31;;;;;;;2.55;1.22;;;;;;;5.52;44.03;99670.95;1738936;80;21501;-63
2022/03/05 08:08:59;;;;;;;1.67;1.40;;;;;;;5.57;44.01;99680.81;1725832;80;21365;-64
2022/03/05 08:11:26;;;;;;;1.10;1.00;;;;;;;5.57;44.24;99674.75;1728573;80;21002;-64
2022/03/05 08:13:53;;;;;;;1.43;1.00;;;;;;;5.63;43.74;99670.69;1737400;80;20898;-64
2022/03/05 08:16:20;;;;;;;3.08;1.32;;;;;;;5.62;44.06;99672.91;1705111;82;22720;-65
2022/03/05 08:18:46;;;;;;;2.00;1.17;;;;;;;5.65;43.41;99672.39;1738163;80;21535;-65
2022/03/05 08:21:13;;;;;;;1.82;1.27;;;;;;;5.65;43.57;99672.81;1741051;81;21428;-65
2022/03/05 08:23:41;;;;;;;1.62;1.30;;;;;;;5.63;43.12;99679.81;1756108;80;21494;-64
2022/03/05 08:26:13;;;;;;;1.90;1.17;;;;;;;5.60;43.54;99688.58;1764505;80;22631;-64
2022/03/05 08:28:37;;;;;;;2.30;1.07;;;;;;;5.72;43.86;99682.23;1762765;80;22571;-64
2022/03/05 08:31:04;;;;;;;1.12;1.02;;;;;;;5.81;43.51;99683.78;1747878;80;20890;-64
2022/03/05 08:33:31;;;;;;;2.30;1.17;;;;;;;5.85;43.46;99690.19;1768727;80;20965;-65
2022/03/05 08:35:58;;;;;;;1.57;1.30;;;;;;;5.96;43.58;99688.68;1769418;80;21478;-65
2022/03/05 08:38:24;;;;;;;1.40;1.07;;;;;;;6.00;43.25;99686.86;1772058;80;21468;-65
2022/03/05 08:40:51;;;;;;;1.80;1.40;;;;;;;6.03;43.28;99688.95;1761036;80;22486;-66
2022/03/05 08:43:18;;;;;;;1.37;1.25;;;;;;;6.05;42.65;99688.92;1761462;80;21394;-65
2022/03/05 08:45:45;;;;;;;1.60;1.30;;;;;;;6.17;42.99;99692.53;1759999;80;21514;-65
2022/03/05 08:48:12;;;;;;;1.52;1.35;;;;;;;6.20;42.78;99687.24;1760831;80;21539;-65
2022/03/05 08:50:39;;;;;;;1.57;1.37;;;;;;;6.33;42.84;99690.42;1741717;81;21481;-64
2022/03/05 08:53:05;;;;;;;1.80;1.50;;;;;;;6.47;42.60;99695.29;1768683;78;22611;-64
2022/03/05 08:55:32;;;;;;;1.60;1.50;;;;;;;6.55;42.35;99695.94;1764401;78;21617;-64
2022/03/05 08:57:59;;;;;;;1.35;1.20;;;;;;;6.60;42.03;99695.38;1728834;82;21476;-64
2022/03/05 09:00:26;;;;;;;3.35;1.17;;;;;;;6.70;41.96;99692.08;1717533;82;21464;-64
2022/03/05 09:02:53;;;;;;;1.35;1.25;;;;;;;6.76;42.11;99692.36;1683846;82;21335;-63
2022/03/05 09:05:20;;;;;;;1.15;1.02;;;;;;;6.92;42.16;99696.75;1712046;82;22487;-63
2022/03/05 09:07:47;;;;;;;2.05;1.25;;;;;;;6.95;41.52;99694.91;1720560;82;21478;-63
2022/03/05 09:10:14;;;;;;;0.97;0.97;;;;;;;7.04;41.69;99703.40;1735783;82;21477;-64
2022/03/05 09:12:42;;;;;;;3.65;1.22;;;;;;;7.00;41.43;99706.08;1736374;82;21105;-63
2022/03/05 09:15:10;;;;;;;1.75;1.20;;;;;;;7.00;41.56;99704.78;1712804;82;21433;-62
2022/03/05 09:17:38;;;;;;;1.35;1.22;;;;;;;7.08;41.61;99710.25;1705031;82;22512;-63
2022/03/05 09:20:07;;;;;;;1.20;1.10;;;;;;;7.08;40.94;99715.02;1707955;82;21103;-64
2022/03/05 09:22:34;;;;;;;1.57;1.27;;;;;;;7.02;41.19;99712.58;1706037;83;21737;-63
2022/03/05 09:25:02;;;;;;;1.40;1.07;;;;;;;6.96;40.93;99713.61;1746097;80;21444;-63
2022/03/05 09:27:29;;;;;;;1.80;1.07;;;;;;;7.01;41.25;99718.27;1730361;81;27801;-63
2022/03/05 09:29:58;;;;;;;2.15;1.30;;;;;;;7.16;41.41;99726.61;1744343;80;21479;-63
2022/03/05 09:32:25;;;;;;;1.10;1.02;;;;;;;7.16;41.22;99727.91;1749070;80;20961;-63
2022/03/05 09:34:52;;;;;;;1.15;1.05;;;;;;;7.27;41.26;99728.91;1748196;80;21446;-63
2022/03/05 09:37:19;;;;;;;1.47;1.37;;;;;;;7.34;41.23;99731.30;1742778;80;21566;-63
2022/03/05 09:39:48;;;;;;;2.27;1.17;;;;;;;7.40;41.30;99732.45;1743420;80;21522;-63
2022/03/05 09:42:16;;;;;;;1.37;1.27;;;;;;;7.57;41.19;99734.59;1737483;80;22563;-63
2022/03/05 09:44:43;;;;;;;2.67;1.30;;;;;;;7.63;40.63;99733.98;1734251;80;21417;-64
2022/03/05 09:47:10;;;;;;;1.25;1.17;;;;;;;7.67;40.83;99726.47;1744575;80;21504;-61
2022/03/05 09:49:38;;;;;;;1.30;1.20;;;;;;;7.67;39.73;99729.94;1744478;80;21458;-62
2022/03/05 09:52:06;;;;;;;2.92;1.07;;;;;;;7.46;40.00;99735.78;1747913;80;21465;-62
2022/03/05 09:54:34;;;;;;;1.90;1.42;;;;;;;7.47;40.12;99727.89;1745671;80;22547;-62
2022/03/05 09:57:02;;;;;;;;;;;;;;;7.48;40.37;99731.36;1750904;79;20874;-64
2022/03/05 09:59:29;;;;;;;1.85;1.30;;;;;;;7.48;39.88;99733.55;1740136;80;24215;-65
2022/03/05 10:01:56;;;;;;;1.33;1.23;;;;;;;7.57;40.23;99728.48;1738339;80;21467;-64
2022/03/05 10:04:24;;;;;;;1.85;1.35;;;;;;;7.63;40.39;99730.94;1748985;80;20922;-64
2022/03/05 10:07:13;;;;;;;2.75;1.52;;;;;;;7.67;40.12;99732.56;1741606;80;21569;-63
2022/03/05 10:09:44;;;;;;;2.05;1.00;;;;;;;7.75;39.91;99735.80;1741344;80;21365;-64
2022/03/05 10:12:34;;;;;;;1.40;1.00;;;;;;;7.71;39.69;99728.09;1746690;80;21506;-64
2022/03/05 10:15:14;;;;;;;2.08;1.50;;;;;;;7.64;39.66;99731.79;1748915;80;21173;-64
2022/03/05 10:17:53;;;;;;;1.85;1.22;;;;;;;7.54;39.79;99738.59;1756377;79;21356;-64
2022/03/05 10:20:27;;;;;;;;;;;;;;;7.44;39.92;99741.08;1747398;80;22562;-64
2022/03/05 10:23:02;;;;;;;1.37;1.27;;;;;;;7.31;40.31;99740.98;1747491;80;20905;-64
2022/03/05 10:25:47;;;;;;;2.02;1.12;;;;;;;7.24;40.35;99740.78;1755394;80;21511;-64
2022/03/05 10:28:22;;;;;;;1.20;1.10;;;;;;;7.20;40.66;99747.84;1755025;80;21310;-64
2022/03/05 10:31:01;;;;;;;1.10;1.00;;;;;;;7.09;40.25;99742.90;1755114;80;21544;-64
2022/03/05 10:33:40;;;;;;;1.00;1.00;;;;;;;7.00;40.65;99745.30;1744253;80;22525;-64
2022/03/05 10:37:10;;;;;;;1.72;1.40;;;;;;;6.57;41.84;99746.42;1777046;79;23152;-64
2022/03/05 10:39:37;;;;;;;1.47;1.37;;;;;;;6.57;41.84;99746.42;1736265;80;21455;-64
2022/03/05 10:42:20;;;;;;;1.40;1.30;;;;;;;6.64;41.37;99744.50;1742022;80;22698;-65
2022/03/05 10:45:08;;;;;;;1.75;1.27;;;;;;;6.59;41.39;99749.86;1733124;80;21573;-64
2022/03/05 10:47:39;;;;;;;2.33;1.70;;;;;;;6.65;41.61;99750.58;1721403;81;21559;-63
2022/03/05 10:50:16;;;;;;;2.17;1.92;;;;;;;6.68;41.91;99743.98;1738652;80;21449;-64
2022/03/05 10:52:56;;;;;;;1.67;1.52;;;;;;;6.67;42.11;99744.86;1733440;80;21384;-64
2022/03/05 10:55:29;;;;;;;1.50;1.40;;;;;;;6.56;41.99;99739.47;1737113;80;22579;-65
2022/03/05 10:58:04;;;;;;;1.47;1.37;;;;;;;6.51;42.26;99743.94;1742024;80;20941;-64
2022/03/05 11:00:31;;;;;;;1.20;1.10;;;;;;;6.48;41.89;99745.34;1747035;80;21856;-64
2022/03/05 11:03:03;;;;;;;1.20;1.07;;;;;;;6.46;42.14;99740.61;1712684;81;21569;-65
2022/03/05 11:05:30;;;;;;;2.05;1.07;;;;;;;6.50;42.35;99741.36;1747931;80;21426;-64
2022/03/05 11:07:57;;;;;;;1.37;1.10;;;;;;;6.51;42.46;99741.78;1728527;80;22485;-63
2022/03/05 11:10:29;;;;;;;1.55;1.15;;;;;;;6.53;41.78;99741.30;1746846;81;21522;-63
2022/03/05 11:12:59;;;;;;;3.17;1.30;;;;;;;6.55;42.38;99744.73;1740769;80;21518;-63
2022/03/05 11:15:27;;;;;;;3.62;1.12;;;;;;;6.63;42.48;99737.58;1734732;80;21541;-64
2022/03/05 11:17:57;;;;;;;3.42;1.30;;;;;;;6.62;42.04;99747.14;1741603;81;21490;-64
2022/03/05 11:20:25;;;;;;;1.32;1.22;;;;;;;6.61;42.33;99743.26;1738880;80;22597;-63
2022/03/05 11:22:53;;;;;;;1.42;1.32;;;;;;;6.55;42.09;99747.34;1746812;80;20922;-63
2022/03/05 11:25:24;;;;;;;1.45;1.35;;;;;;;6.46;42.29;99739.73;1720469;80;21554;-64
2022/03/05 11:28:03;;;;;;;1.15;1.15;;;;;;;6.42;42.40;99745.47;1740542;80;21560;-64
2022/03/05 11:30:43;;;;;;;1.40;1.30;;;;;;;6.34;42.53;99747.42;1727958;80;21458;-63
2022/03/05 11:33:13;;;;;;;1.40;1.30;;;;;;;6.29;42.25;99745.35;1741498;80;22426;-63
2022/03/05 11:35:43;;;;;;;2.08;1.45;;;;;;;6.30;42.76;99745.78;1735506;80;21200;-63
2022/03/05 11:38:37;;;;;;;1.35;1.25;;;;;;;6.33;42.94;99743.07;1685788;83;21588;-63
2022/03/05 11:41:25;;;;;;;1.50;1.40;;;;;;;6.33;42.90;99748.30;1707418;82;21430;-63
2022/03/05 11:43:52;;;;;;;4.85;1.40;;;;;;;6.32;43.00;99746.59;1700188;82;21595;-62
2022/03/05 11:46:29;;;;;;;1.75;1.65;;;;;;;6.29;43.08;99751.45;1710226;83;22515;-63
2022/03/05 11:49:06;;;;;;;1.70;1.60;;;;;;;6.29;43.02;99745.35;1707896;82;20883;-64